Federal Clyde — V7NK4 — position and weather

sailwx.info

Track history (hours):
 
Tides and Currents Weather Stations Pressure Air Temp Water Temp Dewpoint Dewpoint Depression Visibility Wind Speed Wind Dir Waves Ship Positions

Federal Clyde

Last reported at 2017-Nov-24 10:45 UTC. Time now 2017-Nov-24 11:15 UTC.
Position N 45°30' W 073°31'.

Length 200 m; draft 7.7 m.

Type: Cargo ship. MMSI: 538006470.

Date/timePositionNaut miles runAvg speedWind from/ knotsBaromVisibWave heightAir tempDewpointWater temp
2017-Nov-24 10:45N 45°30' W 073°31'0 1.1
2017-Nov-24 10:30N 45°30' W 073°31'2 3.5
2017-Nov-24 09:57N 45°32' W 073°32'8 5.6
2017-Nov-24 08:27N 45°40' W 073°28'  
2017-Nov-15 05:02N 49°48' W 005°12'413.3
2017-Nov-15 04:45N 49°49' W 005°06'1413.3
2017-Nov-15 03:43N 49°51' W 004°45'613.1
2017-Nov-15 03:15N 49°53' W 004°36'313.1
2017-Nov-15 03:00N 49°53' W 004°31'712.9
2017-Nov-15 02:29N 49°53' W 004°21'612.8
2017-Nov-15 02:00N 49°53' W 004°11'713.3
2017-Nov-15 01:30N 49°54' W 004°01'813.6
2017-Nov-15 00:56N 49°55' W 003°49'613.9
2017-Nov-15 00:30N 49°56' W 003°40'714.4
2017-Nov-15 00:00N 49°57' W 003°29'714.9
2017-Nov-14 23:30N 49°58' W 003°17'815.2
2017-Nov-14 23:00N 49°59' W 003°06'815.4
2017-Nov-14 22:30N 50°00' W 002°54'815.6
2017-Nov-14 22:00N 50°02' W 002°42'815.3
2017-Nov-14 21:30N 50°05' W 002°31'1814.5
2017-Nov-14 20:14N 50°10' W 002°03'313.5
2017-Nov-14 20:00N 50°10' W 001°58'612.7
2017-Nov-14 19:30N 50°11' W 001°49'612.3
2017-Nov-14 19:01N 50°13' W 001°39'611.8
2017-Nov-14 18:30N 50°14' W 001°30'611.3
2017-Nov-14 17:57N 50°16' W 001°21'611.1
2017-Nov-14 17:25N 50°17' W 001°12'3112.0
2017-Nov-14 14:51N 50°25' W 000°25'513.7
2017-Nov-14 14:30N 50°27' W 000°18'714.0
2017-Nov-14 14:00N 50°29' W 000°08'714.3
2017-Nov-14 13:30N 50°31' E 000°03'714.5
2017-Nov-14 13:01N 50°33' E 000°14'714.6
2017-Nov-14 12:30N 50°34' E 000°25'714.4
2017-Nov-14 12:01N 50°37' E 000°36'714.2
2017-Nov-14 11:31N 50°41' E 000°45'713.7
2017-Nov-14 11:00N 50°45' E 000°54'  
Track history (hours):
 
Tides and Currents Weather Stations Pressure Air Temp Water Temp Dewpoint Dewpoint Depression Visibility Wind Speed Wind Dir Waves Ship Positions

Federal Clyde

Last reported at 2017-Nov-24 10:45 UTC. Time now 2017-Nov-24 11:15 UTC.
Position N 45°30' W 073°31'.

Length 200 m; draft 7.7 m.

Type: Cargo ship. MMSI: 538006470.

Date/timePositionNaut miles runAvg speedWind from/ knotsBaromVisibWave heightAir tempDewpointWater temp
2017-Nov-24 10:45N 45°30' W 073°31'0 1.1
2017-Nov-24 10:30N 45°30' W 073°31'2 3.5
2017-Nov-24 09:57N 45°32' W 073°32'8 5.6
2017-Nov-24 08:27N 45°40' W 073°28'  
2017-Nov-15 05:02N 49°48' W 005°12'413.3
2017-Nov-15 04:45N 49°49' W 005°06'1413.3
2017-Nov-15 03:43N 49°51' W 004°45'613.1
2017-Nov-15 03:15N 49°53' W 004°36'313.1
2017-Nov-15 03:00N 49°53' W 004°31'712.9
2017-Nov-15 02:29N 49°53' W 004°21'612.8
2017-Nov-15 02:00N 49°53' W 004°11'713.3
2017-Nov-15 01:30N 49°54' W 004°01'813.6
2017-Nov-15 00:56N 49°55' W 003°49'613.9
2017-Nov-15 00:30N 49°56' W 003°40'714.4
2017-Nov-15 00:00N 49°57' W 003°29'714.9
2017-Nov-14 23:30N 49°58' W 003°17'815.2
2017-Nov-14 23:00N 49°59' W 003°06'815.4
2017-Nov-14 22:30N 50°00' W 002°54'815.6
2017-Nov-14 22:00N 50°02' W 002°42'815.3
2017-Nov-14 21:30N 50°05' W 002°31'1814.5
2017-Nov-14 20:14N 50°10' W 002°03'313.5
2017-Nov-14 20:00N 50°10' W 001°58'612.7
2017-Nov-14 19:30N 50°11' W 001°49'612.3
2017-Nov-14 19:01N 50°13' W 001°39'611.8
2017-Nov-14 18:30N 50°14' W 001°30'611.3
2017-Nov-14 17:57N 50°16' W 001°21'611.1
2017-Nov-14 17:25N 50°17' W 001°12'3112.0
2017-Nov-14 14:51N 50°25' W 000°25'513.7
2017-Nov-14 14:30N 50°27' W 000°18'714.0
2017-Nov-14 14:00N 50°29' W 000°08'714.3
2017-Nov-14 13:30N 50°31' E 000°03'714.5
2017-Nov-14 13:01N 50°33' E 000°14'714.6
2017-Nov-14 12:30N 50°34' E 000°25'714.4
2017-Nov-14 12:01N 50°37' E 000°36'714.2
2017-Nov-14 11:31N 50°41' E 000°45'713.7
2017-Nov-14 11:00N 50°45' E 000°54'  

Dump ship's entire track history